createdAt,value
2023-03-26T00:01:26.746Z,3.45
2023-03-26T00:03:58.631Z,3.55
2023-03-26T00:06:29.042Z,4.18
2023-03-26T00:08:57.679Z,3.83
2023-03-26T00:11:27.932Z,3.63
2023-03-26T00:13:58.921Z,3.97
2023-03-26T00:16:31.527Z,3.50
2023-03-26T00:19:00.157Z,3.63
2023-03-26T00:21:29.276Z,3.28
2023-03-26T00:24:04.666Z,3.65
2023-03-26T00:26:34.138Z,3.30
2023-03-26T00:29:03.503Z,2.80
2023-03-26T00:31:31.324Z,3.55
2023-03-26T00:33:58.586Z,3.17
2023-03-26T00:36:27.023Z,3.15
2023-03-26T00:38:54.969Z,2.95
2023-03-26T00:41:26.438Z,3.10
2023-03-26T00:43:58.730Z,3.05
2023-03-26T00:46:27.287Z,3.38
2023-03-26T00:48:54.353Z,2.40
2023-03-26T00:51:22.114Z,3.10
2023-03-26T00:53:50.783Z,3.03
2023-03-26T00:56:19.187Z,2.70
2023-03-26T00:58:48.029Z,3.05
2023-03-26T01:01:18.992Z,2.08
2023-03-26T01:04:00.917Z,2.15
2023-03-26T01:06:36.500Z,2.47
2023-03-26T01:09:19.071Z,2.25
2023-03-26T01:11:48.305Z,2.13
2023-03-26T01:14:18.895Z,1.80
2023-03-26T01:16:55.188Z,2.47
2023-03-26T01:19:29.809Z,1.88
2023-03-26T01:21:59.038Z,2.10
2023-03-26T01:24:26.251Z,2.03
2023-03-26T01:26:58.858Z,2.50
2023-03-26T01:29:34.557Z,2.03
2023-03-26T01:32:20.743Z,2.42
2023-03-26T01:35:21.560Z,2.40
2023-03-26T01:38:11.155Z,2.67
2023-03-26T01:40:50.608Z,2.75
2023-03-26T01:43:39.652Z,2.83
2023-03-26T01:46:09.484Z,2.90
2023-03-26T01:48:44.158Z,2.95
2023-03-26T01:51:13.001Z,2.63
2023-03-26T01:53:46.344Z,2.92
2023-03-26T01:56:36.567Z,2.78
2023-03-26T01:59:18.533Z,2.70
2023-03-26T02:02:11.379Z,2.42
2023-03-26T02:05:00.377Z,2.33
2023-03-26T02:07:42.074Z,2.13
2023-03-26T02:10:16.467Z,2.83
2023-03-26T02:12:45.517Z,2.10
2023-03-26T02:15:13.042Z,2.40
2023-03-26T02:17:40.564Z,2.25
2023-03-26T02:20:14.101Z,2.15
2023-03-26T02:22:46.090Z,2.58
2023-03-26T02:25:19.033Z,2.67
2023-03-26T02:27:50.408Z,2.38
2023-03-26T02:30:25.782Z,2.60
2023-03-26T02:32:59.328Z,1.95
2023-03-26T02:35:32.935Z,2.38
2023-03-26T02:38:02.130Z,2.13
2023-03-26T02:40:29.011Z,2.40
2023-03-26T02:42:56.560Z,2.55
2023-03-26T02:45:24.412Z,2.80
2023-03-26T02:48:18.152Z,2.30
2023-03-26T02:51:02.968Z,2.40
2023-03-26T02:53:32.550Z,2.08
2023-03-26T02:56:18.664Z,1.80
2023-03-26T02:58:59.346Z,1.85
2023-03-26T03:01:26.616Z,2.05
2023-03-26T03:03:55.042Z,1.90
2023-03-26T03:06:34.724Z,1.90
2023-03-26T03:09:02.881Z,1.77
2023-03-26T03:11:36.548Z,2.00
2023-03-26T03:14:05.004Z,2.10
2023-03-26T03:16:33.500Z,2.00
2023-03-26T03:19:06.376Z,1.60
2023-03-26T03:21:37.994Z,1.70
2023-03-26T03:24:05.979Z,1.75
2023-03-26T03:26:36.511Z,1.30
2023-03-26T03:29:32.158Z,1.20
2023-03-26T03:32:12.671Z,1.50
2023-03-26T03:34:45.117Z,1.30
2023-03-26T03:37:12.194Z,1.80
2023-03-26T03:39:45.412Z,1.83
2023-03-26T03:42:16.929Z,2.00
2023-03-26T03:44:44.768Z,2.00
2023-03-26T03:47:31.641Z,1.70
2023-03-26T03:50:00.325Z,1.85
2023-03-26T03:52:28.244Z,2.03
2023-03-26T03:54:57.875Z,2.00
2023-03-26T03:57:39.291Z,1.90
2023-03-26T04:00:12.057Z,2.00
2023-03-26T04:02:56.368Z,1.80
2023-03-26T04:05:26.609Z,1.70
2023-03-26T04:07:53.808Z,2.00
2023-03-26T04:10:38.791Z,1.42
2023-03-26T04:13:12.862Z,1.80
2023-03-26T04:15:56.182Z,1.52
2023-03-26T04:18:23.811Z,1.30
2023-03-26T04:20:51.040Z,1.80
2023-03-26T04:23:26.748Z,2.30
2023-03-26T04:26:05.575Z,1.88
2023-03-26T04:29:12.860Z,1.55
2023-03-26T04:31:40.110Z,1.45
2023-03-26T04:34:23.550Z,1.75
2023-03-26T04:37:06.718Z,1.85
2023-03-26T04:39:42.273Z,1.88
2023-03-26T04:42:47.154Z,2.00
2023-03-26T04:45:31.996Z,1.80
2023-03-26T04:47:59.456Z,1.70
2023-03-26T04:50:27.192Z,2.08
2023-03-26T04:52:59.650Z,3.22
2023-03-26T04:56:11.912Z,1.73
2023-03-26T04:59:15.776Z,1.30
2023-03-26T05:01:46.160Z,1.85
2023-03-26T05:04:15.577Z,1.58
2023-03-26T05:06:43.164Z,1.63
2023-03-26T05:09:23.404Z,2.05
2023-03-26T05:12:23.041Z,2.00
2023-03-26T05:15:12.073Z,2.22
2023-03-26T05:18:01.847Z,1.88
2023-03-26T05:20:37.265Z,3.13
2023-03-26T05:23:08.104Z,2.50
2023-03-26T05:25:37.748Z,2.35
2023-03-26T05:28:11.904Z,2.20
2023-03-26T05:30:48.072Z,2.75
2023-03-26T05:33:16.533Z,2.10
2023-03-26T05:36:01.335Z,3.03
2023-03-26T05:38:31.224Z,2.42
2023-03-26T05:41:00.235Z,2.40
2023-03-26T05:43:27.978Z,2.97
2023-03-26T05:46:17.320Z,3.38
2023-03-26T05:48:51.590Z,4.20
2023-03-26T05:51:20.661Z,3.10
2023-03-26T05:53:57.003Z,3.42
2023-03-26T05:56:42.809Z,2.75
2023-03-26T05:59:28.320Z,2.60
2023-03-26T06:01:58.396Z,3.00
2023-03-26T06:04:46.250Z,2.70
2023-03-26T06:07:34.001Z,2.95
2023-03-26T06:10:10.130Z,3.53
2023-03-26T06:12:37.438Z,3.20
2023-03-26T06:15:05.794Z,3.30
2023-03-26T06:17:58.669Z,2.95
2023-03-26T06:20:52.399Z,2.85
2023-03-26T06:23:31.269Z,2.83
2023-03-26T06:26:17.222Z,3.80
2023-03-26T06:28:55.307Z,2.83
2023-03-26T06:31:34.897Z,4.65
2023-03-26T06:34:24.085Z,2.80
2023-03-26T06:36:53.001Z,3.05
2023-03-26T06:39:21.659Z,2.92
2023-03-26T06:42:06.720Z,4.30
2023-03-26T06:44:59.814Z,3.65
2023-03-26T06:47:50.552Z,3.45
2023-03-26T06:50:47.345Z,3.33
2023-03-26T06:53:43.234Z,3.35
2023-03-26T06:56:25.140Z,3.10
2023-03-26T06:59:02.453Z,2.83
2023-03-26T07:01:48.817Z,2.95
2023-03-26T07:04:34.840Z,2.83
2023-03-26T07:07:21.991Z,3.92
2023-03-26T07:10:08.122Z,2.15
2023-03-26T07:12:54.072Z,2.47
2023-03-26T07:15:36.358Z,3.15
2023-03-26T07:18:26.548Z,3.67
2023-03-26T07:20:54.271Z,2.58
2023-03-26T07:23:23.186Z,2.95
2023-03-26T07:25:57.739Z,2.80
2023-03-26T07:28:41.469Z,2.40
2023-03-26T07:31:38.231Z,2.78
2023-03-26T07:35:03.004Z,2.42
2023-03-26T07:38:23.780Z,2.20
2023-03-26T07:41:20.264Z,2.80
2023-03-26T07:44:43.361Z,2.60
2023-03-26T07:47:36.788Z,2.10
2023-03-26T07:50:27.301Z,2.80
2023-03-26T07:53:15.078Z,2.35
2023-03-26T07:56:06.336Z,2.50
2023-03-26T07:59:04.365Z,4.30
2023-03-26T08:02:00.599Z,4.07
2023-03-26T08:04:54.278Z,3.20
2023-03-26T08:07:59.014Z,2.70
2023-03-26T08:10:38.631Z,2.85
2023-03-26T08:13:27.894Z,2.25
2023-03-26T08:16:17.129Z,2.97
2023-03-26T08:18:47.480Z,2.45
2023-03-26T08:21:20.739Z,3.47
2023-03-26T08:24:18.853Z,2.60
2023-03-26T08:26:57.824Z,3.83
2023-03-26T08:29:50.145Z,3.13
2023-03-26T08:32:19.292Z,3.15
2023-03-26T08:34:46.546Z,3.03
2023-03-26T08:37:13.961Z,3.05
2023-03-26T08:39:42.603Z,2.78
2023-03-26T08:42:18.387Z,3.30
2023-03-26T08:45:53.442Z,3.22
2023-03-26T08:48:20.284Z,2.97
2023-03-26T08:51:13.107Z,2.97
2023-03-26T08:54:08.429Z,2.97
2023-03-26T08:57:01.653Z,2.33
2023-03-26T08:59:34.589Z,2.30
2023-03-26T09:02:49.173Z,3.17
2023-03-26T09:05:43.522Z,2.55
2023-03-26T09:08:54.292Z,1.75
2023-03-26T09:11:44.932Z,2.05
2023-03-26T09:14:36.985Z,2.13
2023-03-26T09:17:35.043Z,2.05
2023-03-26T09:20:09.065Z,1.75
2023-03-26T09:22:53.286Z,2.30
2023-03-26T09:25:53.530Z,4.18
2023-03-26T09:28:36.774Z,1.80
2023-03-26T09:31:28.513Z,1.90
2023-03-26T09:34:00.584Z,1.88
2023-03-26T09:36:53.129Z,2.10
2023-03-26T09:39:43.004Z,1.80
2023-03-26T09:42:23.383Z,2.20
2023-03-26T09:45:09.227Z,1.60
2023-03-26T09:47:53.853Z,1.33
2023-03-26T09:50:42.608Z,1.50
2023-03-26T09:53:38.638Z,0.77
2023-03-26T09:56:42.480Z,1.00
2023-03-26T09:59:24.760Z,1.10
2023-03-26T10:01:54.801Z,0.98
2023-03-26T10:04:40.561Z,1.17
2023-03-26T10:07:39.146Z,1.33
2023-03-26T10:10:23.995Z,0.85
2023-03-26T10:13:02.149Z,0.90
2023-03-26T10:15:44.836Z,0.93
2023-03-26T10:18:27.354Z,0.90
2023-03-26T10:21:02.858Z,0.98
2023-03-26T10:23:53.833Z,0.82
2023-03-26T10:27:08.957Z,0.80
2023-03-26T10:29:41.586Z,0.90
2023-03-26T10:32:51.406Z,0.80
2023-03-26T10:35:45.282Z,0.90
2023-03-26T10:38:36.736Z,0.90
2023-03-26T10:44:19.782Z,0.80
2023-03-26T10:47:02.024Z,1.10
2023-03-26T10:49:51.088Z,0.80
2023-03-26T10:52:49.324Z,0.80
2023-03-26T10:55:28.769Z,0.80
2023-03-26T10:58:03.732Z,1.10
2023-03-26T11:00:31.370Z,0.70
2023-03-26T11:03:24.420Z,1.00
2023-03-26T11:06:15.517Z,0.90
2023-03-26T11:08:52.322Z,1.30
2023-03-26T11:11:29.768Z,1.10
2023-03-26T11:14:06.618Z,3.28
2023-03-26T11:16:53.360Z,1.65
2023-03-26T11:19:29.326Z,1.60
2023-03-26T11:22:16.173Z,0.77
2023-03-26T11:25:09.536Z,2.20
2023-03-26T11:27:55.029Z,1.42
2023-03-26T11:30:34.217Z,3.17
2023-03-26T11:33:06.006Z,2.53
2023-03-26T11:35:40.382Z,1.10
2023-03-26T11:38:46.849Z,0.80
2023-03-26T11:41:23.694Z,1.05
2023-03-26T11:44:21.924Z,1.42
2023-03-26T11:46:59.879Z,0.60
2023-03-26T11:49:29.532Z,0.80
2023-03-26T11:51:56.778Z,0.90
2023-03-26T11:54:23.845Z,0.60
2023-03-26T11:57:13.310Z,0.77
2023-03-26T11:59:57.160Z,0.80
2023-03-26T12:03:00.509Z,0.77
2023-03-26T12:05:36.669Z,0.50
2023-03-26T12:08:18.083Z,0.60
2023-03-26T12:10:58.645Z,0.85
2023-03-26T12:13:30.477Z,0.80
2023-03-26T12:16:01.412Z,0.60
2023-03-26T12:18:28.853Z,0.88
2023-03-26T12:21:04.540Z,0.70
2023-03-26T12:23:39.067Z,0.40
2023-03-26T12:26:20.804Z,0.50
2023-03-26T12:28:50.563Z,0.80
2023-03-26T12:31:19.502Z,0.80
2023-03-26T12:34:06.558Z,0.60
2023-03-26T12:36:49.779Z,0.98
2023-03-26T12:40:07.284Z,1.17
2023-03-26T12:44:47.105Z,1.02
2023-03-26T12:45:27.021Z,3.28
2023-03-26T12:48:02.989Z,2.28
2023-03-26T12:51:14.198Z,1.63
2023-03-26T12:53:53.400Z,1.45
2023-03-26T12:56:39.500Z,1.10
2023-03-26T12:59:37.144Z,1.40
2023-03-26T13:02:16.239Z,1.42
2023-03-26T13:05:20.024Z,2.05
2023-03-26T13:08:21.272Z,1.90
2023-03-26T13:11:09.061Z,0.85
2023-03-26T13:13:45.705Z,1.15
2023-03-26T13:16:37.614Z,1.48
2023-03-26T13:19:16.079Z,1.67
2023-03-26T13:21:46.956Z,1.25
2023-03-26T13:24:19.782Z,2.40
2023-03-26T13:27:12.979Z,2.85
2023-03-26T13:29:56.819Z,0.82
2023-03-26T13:32:47.066Z,1.13
2023-03-26T13:38:06.176Z,1.48
2023-03-26T13:40:45.088Z,0.93
2023-03-26T13:43:18.137Z,0.90
2023-03-26T13:45:58.361Z,0.70
2023-03-26T13:48:56.496Z,0.90
2023-03-26T13:51:40.771Z,0.98
2023-03-26T13:54:26.778Z,0.50
2023-03-26T13:57:11.453Z,0.90
2023-03-26T13:59:50.447Z,0.98
2023-03-26T14:02:24.746Z,1.30
2023-03-26T14:04:58.817Z,0.70
2023-03-26T14:07:41.500Z,1.00
2023-03-26T14:10:24.012Z,1.30
2023-03-26T14:13:00.864Z,0.73
2023-03-26T14:15:56.061Z,0.70
2023-03-26T14:18:39.291Z,0.93
2023-03-26T14:21:24.911Z,1.30
2023-03-26T14:23:54.932Z,1.00
2023-03-26T14:26:43.853Z,0.60
2023-03-26T14:29:57.182Z,0.80
2023-03-26T14:33:05.961Z,0.40
2023-03-26T14:35:58.729Z,0.63
2023-03-26T14:38:47.422Z,0.60
2023-03-26T14:41:23.695Z,0.88
2023-03-26T14:44:12.011Z,0.80
2023-03-26T14:46:47.725Z,0.50
2023-03-26T14:49:20.261Z,0.70
2023-03-26T14:52:09.575Z,0.85
2023-03-26T14:54:42.593Z,0.80
2023-03-26T14:57:47.131Z,0.60
2023-03-26T15:00:40.836Z,0.55
2023-03-26T15:03:27.863Z,1.42
2023-03-26T15:06:03.746Z,0.80
2023-03-26T15:08:55.800Z,1.52
2023-03-26T15:11:22.970Z,1.10
2023-03-26T15:14:03.048Z,1.52
2023-03-26T15:16:56.236Z,0.90
2023-03-26T15:19:44.445Z,0.93
2023-03-26T15:22:30.530Z,0.90
2023-03-26T15:25:35.293Z,1.15
2023-03-26T15:28:17.741Z,0.90
2023-03-26T15:31:11.506Z,1.20
2023-03-26T15:34:06.442Z,1.60
2023-03-26T15:37:10.920Z,1.50
2023-03-26T15:39:59.188Z,4.80
2023-03-26T15:42:59.217Z,3.28
2023-03-26T15:45:38.531Z,2.47
2023-03-26T15:48:12.063Z,4.03
2023-03-26T15:50:54.829Z,4.18
2023-03-26T15:53:52.979Z,2.42
2023-03-26T15:56:31.246Z,1.40
2023-03-26T15:59:15.977Z,1.52
2023-03-26T16:02:04.919Z,1.40
2023-03-26T16:05:06.136Z,5.85
2023-03-26T16:08:03.005Z,1.73
2023-03-26T16:11:08.274Z,1.52
2023-03-26T16:13:42.845Z,1.50
2023-03-26T16:16:15.581Z,3.75
2023-03-26T16:18:56.696Z,5.03
2023-03-26T16:21:36.886Z,5.07
2023-03-26T16:24:03.740Z,4.95
2023-03-26T16:26:52.458Z,4.53
2023-03-26T16:29:22.428Z,5.53
2023-03-26T16:32:07.751Z,5.82
2023-03-26T16:35:03.561Z,4.60
2023-03-26T16:37:36.574Z,5.18
2023-03-26T16:40:22.640Z,1.65
2023-03-26T16:43:14.533Z,2.08
2023-03-26T16:46:05.855Z,2.08
2023-03-26T16:48:37.801Z,2.00
2023-03-26T16:51:38.660Z,2.25
2023-03-26T16:54:16.712Z,3.87
2023-03-26T16:56:53.871Z,4.05
2023-03-26T16:59:46.382Z,4.15
2023-03-26T17:03:00.145Z,5.68
2023-03-26T17:05:37.686Z,2.47
2023-03-26T17:08:36.556Z,1.90
2023-03-26T17:11:09.276Z,2.20
2023-03-26T17:14:03.839Z,2.50
2023-03-26T17:17:02.741Z,8.65
2023-03-26T17:19:48.121Z,2.45
2023-03-26T17:22:21.540Z,14.25
2023-03-26T17:25:04.937Z,4.43
2023-03-26T17:27:50.212Z,8.60
2023-03-26T17:30:47.430Z,5.35
2023-03-26T17:33:27.953Z,4.55
2023-03-26T17:36:13.466Z,6.68
2023-03-26T17:38:40.529Z,16.23
2023-03-26T17:41:15.437Z,16.00
2023-03-26T17:43:51.944Z,24.98
2023-03-26T17:46:37.616Z,32.60
2023-03-26T17:49:29.101Z,20.23
2023-03-26T17:52:18.196Z,20.42
2023-03-26T17:54:51.996Z,9.10
2023-03-26T17:57:33.883Z,9.65
2023-03-26T18:00:02.673Z,10.90
2023-03-26T18:02:47.724Z,8.73
2023-03-26T18:05:17.571Z,6.70
2023-03-26T18:07:59.513Z,7.03
2023-03-26T18:10:47.803Z,6.90
2023-03-26T18:13:24.033Z,7.20
2023-03-26T18:15:50.869Z,9.35
2023-03-26T18:18:20.016Z,11.90
2023-03-26T18:20:49.793Z,9.20
2023-03-26T18:23:39.405Z,6.70
2023-03-26T18:26:14.104Z,6.90
2023-03-26T18:28:45.157Z,6.00
2023-03-26T18:33:57.104Z,7.03
2023-03-26T18:36:27.938Z,7.28
2023-03-26T18:39:04.242Z,6.20
2023-03-26T18:41:42.048Z,17.42
2023-03-26T18:44:18.306Z,28.70
2023-03-26T18:46:45.893Z,13.30
2023-03-26T18:49:15.525Z,9.05
2023-03-26T18:51:56.065Z,8.15
2023-03-26T18:54:23.794Z,13.40
2023-03-26T18:56:52.378Z,17.08
2023-03-26T18:59:27.973Z,10.50
2023-03-26T19:01:57.992Z,9.82
2023-03-26T19:04:26.905Z,10.95
2023-03-26T19:06:56.210Z,14.60
2023-03-26T19:09:31.712Z,14.40
2023-03-26T19:12:28.218Z,11.55
2023-03-26T19:15:08.135Z,11.52
2023-03-26T19:17:45.759Z,11.65
2023-03-26T19:20:18.858Z,18.05
2023-03-26T19:22:48.337Z,27.23
2023-03-26T19:25:28.203Z,20.08
2023-03-26T19:27:56.258Z,15.30
2023-03-26T19:30:33.122Z,11.10
2023-03-26T19:33:12.681Z,10.43
2023-03-26T19:35:42.312Z,8.93
2023-03-26T19:38:22.654Z,17.80
2023-03-26T19:40:52.452Z,16.17
2023-03-26T19:43:19.693Z,18.77
2023-03-26T19:45:59.338Z,24.17
2023-03-26T19:48:45.646Z,21.02
2023-03-26T19:51:31.575Z,16.65
2023-03-26T19:54:01.073Z,16.88
2023-03-26T19:56:28.852Z,20.48
2023-03-26T19:58:56.948Z,26.15
2023-03-26T20:01:26.936Z,22.27
2023-03-26T20:04:01.244Z,21.63
2023-03-26T20:06:43.380Z,21.60
2023-03-26T20:09:17.272Z,22.38
2023-03-26T20:11:44.170Z,24.08
2023-03-26T20:14:26.248Z,23.00
2023-03-26T20:16:53.857Z,24.42
2023-03-26T20:19:20.953Z,26.52
2023-03-26T20:21:48.005Z,18.58
2023-03-26T20:24:17.247Z,22.90
2023-03-26T20:26:45.814Z,23.83
2023-03-26T20:29:14.087Z,26.17
2023-03-26T20:31:42.068Z,28.38
2023-03-26T20:34:21.928Z,33.50
2023-03-26T20:36:55.331Z,32.65
2023-03-26T20:39:23.641Z,34.33
2023-03-26T20:41:51.487Z,29.58
2023-03-26T20:44:21.074Z,31.85
2023-03-26T20:46:49.871Z,49.55
2023-03-26T20:49:18.195Z,37.28
2023-03-26T20:51:47.018Z,36.17
2023-03-26T20:54:17.791Z,38.33
2023-03-26T20:56:45.725Z,39.58
2023-03-26T20:59:17.811Z,31.45
2023-03-26T21:01:47.523Z,20.92
2023-03-26T21:04:16.122Z,14.90
2023-03-26T21:06:43.836Z,6.25
2023-03-26T21:09:17.831Z,12.25
2023-03-26T21:12:01.961Z,26.55
2023-03-26T21:14:44.000Z,11.68
2023-03-26T21:17:18.187Z,10.02
2023-03-26T21:19:46.152Z,10.25
2023-03-26T21:22:31.649Z,12.05
2023-03-26T21:25:05.958Z,11.68
2023-03-26T21:27:39.493Z,12.88
2023-03-26T21:30:13.963Z,14.40
2023-03-26T21:32:42.720Z,15.27
2023-03-26T21:35:10.605Z,15.15
2023-03-26T21:38:06.635Z,16.40
2023-03-26T21:40:34.341Z,19.20
2023-03-26T21:43:01.981Z,19.75
2023-03-26T21:45:29.278Z,15.30
2023-03-26T21:47:56.869Z,17.85
2023-03-26T21:50:24.423Z,17.15
2023-03-26T21:52:51.890Z,17.67
2023-03-26T21:55:24.401Z,17.40
2023-03-26T21:58:22.144Z,17.95
2023-03-26T22:01:11.517Z,19.95
2023-03-26T22:04:20.341Z,18.05
2023-03-26T22:06:55.849Z,18.02
2023-03-26T22:09:33.900Z,17.60
2023-03-26T22:12:04.018Z,14.38
2023-03-26T22:14:30.946Z,13.20
2023-03-26T22:16:57.755Z,12.82
2023-03-26T22:19:24.960Z,13.35
2023-03-26T22:21:51.845Z,12.35
2023-03-26T22:24:18.753Z,12.52
2023-03-26T22:26:46.187Z,12.75
2023-03-26T22:29:15.008Z,13.82
2023-03-26T22:31:42.815Z,11.32
2023-03-26T22:34:10.021Z,9.38
2023-03-26T22:36:39.791Z,8.93
2023-03-26T22:39:07.446Z,7.53
2023-03-26T22:41:34.567Z,8.38
2023-03-26T22:44:12.875Z,8.50
2023-03-26T22:46:49.390Z,10.23
2023-03-26T22:49:16.981Z,8.00
2023-03-26T22:51:44.187Z,6.90
2023-03-26T22:54:11.355Z,5.60
2023-03-26T22:56:38.619Z,4.93
2023-03-26T22:59:05.459Z,5.32
2023-03-26T23:01:32.638Z,6.18
2023-03-26T23:03:59.549Z,6.00
2023-03-26T23:06:26.704Z,6.18
2023-03-26T23:08:54.424Z,7.45
2023-03-26T23:11:23.302Z,6.65
2023-03-26T23:13:51.324Z,7.35
2023-03-26T23:16:19.390Z,7.95
2023-03-26T23:18:46.651Z,7.13
2023-03-26T23:21:19.498Z,6.70
2023-03-26T23:23:48.066Z,5.35
2023-03-26T23:26:15.312Z,5.97
2023-03-26T23:28:43.365Z,5.57
2023-03-26T23:31:12.406Z,4.28
2023-03-26T23:33:46.205Z,3.65
2023-03-26T23:36:17.877Z,4.32
2023-03-26T23:38:49.610Z,4.40
2023-03-26T23:41:19.851Z,4.90
2023-03-26T23:43:54.304Z,4.35
2023-03-26T23:46:31.057Z,2.40
2023-03-26T23:49:00.104Z,2.33
2023-03-26T23:51:27.628Z,2.30
2023-03-26T23:53:54.742Z,2.28
2023-03-26T23:56:21.726Z,2.50
2023-03-26T23:58:49.102Z,2.60
